Time;durP1;ratioP1;P1;durP2;ratioP2;P2;SDS_P1;SDS_P2;PMS_P1;PMS_P2;Temp;Humidity;BMP_temperature;BMP_pressure;BME280_temperature;BME280_humidity;BME280_pressure;Samples;Min_cycle;Max_cycle;Signal;HPM_P1;HPM_P2
2023/06/17 00:01:20;;;;;;;3.75;3.65;;;;;;;;;;5227560;22;20026;-58
2023/06/17 00:03:40;;;;;;;4.22;4.00;;;;;;;;;;5227344;22;20022;-58
2023/06/17 00:06:01;;;;;;;3.55;3.33;;;;;;;;;;5227340;22;20060;-58
2023/06/17 00:08:21;;;;;;;4.10;3.83;;;;;;;;;;5204567;22;20373;-58
2023/06/17 00:10:42;;;;;;;4.00;3.78;;;;;;;;;;5227304;22;20210;-58
2023/06/17 00:13:02;;;;;;;4.25;3.92;;;;;;;;;;5227236;22;20025;-58
2023/06/17 00:15:23;;;;;;;4.18;4.07;;;;;;;;;;5227285;22;20057;-58
2023/06/17 00:17:46;;;;;;;4.47;4.07;;;;;;;;;;5227355;22;20033;-58
2023/06/17 00:20:11;;;;;;;4.05;3.80;;;;;;;;;;5227307;22;20042;-58
2023/06/17 00:22:34;;;;;;;3.83;3.72;;;;;;;;;;5227266;22;20072;-59
2023/06/17 00:24:54;;;;;;;3.28;3.17;;;;;;;;;;5227380;22;20026;-58
2023/06/17 00:27:15;;;;;;;2.65;2.65;;;;;;;;;;5227300;22;20090;-58
2023/06/17 00:29:36;;;;;;;3.67;3.58;;;;;;;;;;5227186;22;20333;-59
2023/06/17 00:31:57;;;;;;;3.53;3.42;;;;;;;;;;5227282;22;20026;-58
2023/06/17 00:34:17;;;;;;;3.17;3.17;;;;;;;;;;5227276;22;20102;-58
2023/06/17 00:36:38;;;;;;;3.20;3.10;;;;;;;;;;5227194;22;20044;-58
2023/06/17 00:38:58;;;;;;;3.85;3.65;;;;;;;;;;5227157;22;20065;-58
2023/06/17 00:41:19;;;;;;;3.60;3.50;;;;;;;;;;5227224;22;20023;-58
2023/06/17 00:43:40;;;;;;;3.50;3.40;;;;;;;;;;5227205;22;20078;-58
2023/06/17 00:46:00;;;;;;;3.17;3.08;;;;;;;;;;5227206;22;20061;-58
2023/06/17 00:48:21;;;;;;;3.55;3.25;;;;;;;;;;5227307;22;20026;-58
2023/06/17 00:50:44;;;;;;;3.80;3.70;;;;;;;;;;5227237;22;20331;-58
2023/06/17 00:53:07;;;;;;;3.55;3.45;;;;;;;;;;5227233;22;20064;-58
2023/06/17 00:55:30;;;;;;;4.28;3.70;;;;;;;;;;5227168;22;20075;-58
2023/06/17 00:57:50;;;;;;;3.85;3.75;;;;;;;;;;5227194;22;20057;-58
2023/06/17 01:00:11;;;;;;;3.38;3.28;;;;;;;;;;5227170;22;20222;-58
2023/06/17 01:02:40;;;;;;;3.20;3.00;;;;;;;;;;5227128;22;20116;-57
2023/06/17 01:05:02;;;;;;;3.70;3.50;;;;;;;;;;5226478;22;20210;-58
2023/06/17 01:07:35;;;;;;;3.75;3.55;;;;;;;;;;5227162;22;20061;-57
2023/06/17 01:10:22;;;;;;;3.83;3.60;;;;;;;;;;5227018;22;20037;-58
2023/06/17 01:12:43;;;;;;;3.65;3.35;;;;;;;;;;5197730;22;20211;-58
2023/06/17 01:15:04;;;;;;;3.58;3.47;;;;;;;;;;5227066;22;20026;-59
2023/06/17 01:17:25;;;;;;;4.38;4.15;;;;;;;;;;5227191;22;20057;-59
2023/06/17 01:19:48;;;;;;;3.60;3.40;;;;;;;;;;5227109;22;20073;-59
2023/06/17 01:22:09;;;;;;;3.85;3.38;;;;;;;;;;5227126;22;20245;-58
2023/06/17 01:24:30;;;;;;;3.00;2.95;;;;;;;;;;5226995;22;20256;-58
2023/06/17 01:26:56;;;;;;;3.13;2.92;;;;;;;;;;5227016;22;20026;-59
2023/06/17 01:29:16;;;;;;;3.63;3.53;;;;;;;;;;5226878;22;20034;-59
2023/06/17 01:31:37;;;;;;;3.72;3.60;;;;;;;;;;5227001;22;20062;-59
2023/06/17 01:34:00;;;;;;;5.55;3.03;;;;;;;;;;5227039;22;20076;-59
2023/06/17 01:36:27;;;;;;;4.32;2.08;;;;;;;;;;5226945;22;20022;-59
2023/06/17 01:38:50;;;;;;;3.30;3.08;;;;;;;;;;5226876;22;20022;-59
2023/06/17 01:41:11;;;;;;;2.25;2.10;;;;;;;;;;5226925;22;20222;-59
2023/06/17 01:43:34;;;;;;;2.42;2.33;;;;;;;;;;5227010;22;20214;-59
2023/06/17 01:45:56;;;;;;;2.83;2.72;;;;;;;;;;5226885;22;20030;-59
2023/06/17 01:48:16;;;;;;;2.97;2.88;;;;;;;;;;5226849;22;20080;-59
2023/06/17 01:50:37;;;;;;;5.10;3.60;;;;;;;;;;5226942;22;20026;-59
2023/06/17 01:52:57;;;;;;;2.67;2.65;;;;;;;;;;5226931;22;20078;-59
2023/06/17 01:55:18;;;;;;;2.50;2.45;;;;;;;;;;5226865;22;20026;-59
2023/06/17 01:57:38;;;;;;;3.42;3.33;;;;;;;;;;5226847;22;20021;-58
2023/06/17 01:59:59;;;;;;;3.58;3.45;;;;;;;;;;5202020;22;20023;-59
2023/06/17 02:02:20;;;;;;;2.90;2.70;;;;;;;;;;5226684;22;20336;-59
2023/06/17 02:04:41;;;;;;;3.13;2.85;;;;;;;;;;5226696;22;20076;-59
2023/06/17 02:07:01;;;;;;;3.40;3.10;;;;;;;;;;5226716;22;20022;-58
2023/06/17 02:09:21;;;;;;;2.97;2.72;;;;;;;;;;5226549;22;20261;-58
2023/06/17 02:11:41;;;;;;;2.92;2.85;;;;;;;;;;5226716;22;20057;-58
2023/06/17 02:14:01;;;;;;;2.80;2.70;;;;;;;;;;5226743;22;20072;-59
2023/06/17 02:16:22;;;;;;;2.58;2.47;;;;;;;;;;5227160;22;20022;-58
2023/06/17 02:18:42;;;;;;;3.10;2.90;;;;;;;;;;5227791;22;20214;-59
2023/06/17 02:21:03;;;;;;;3.28;3.00;;;;;;;;;;5227805;22;20207;-59
2023/06/17 02:23:23;;;;;;;3.72;3.30;;;;;;;;;;5227770;22;20025;-59
2023/06/17 02:25:43;;;;;;;2.95;2.95;;;;;;;;;;5227730;22;20052;-59
2023/06/17 02:28:03;;;;;;;2.50;2.50;;;;;;;;;;5227826;22;20027;-58
2023/06/17 02:30:24;;;;;;;3.42;3.13;;;;;;;;;;5228083;22;20109;-57
2023/06/17 02:32:45;;;;;;;2.55;2.55;;;;;;;;;;5227676;22;20022;-57
2023/06/17 02:35:05;;;;;;;2.90;2.90;;;;;;;;;;5227718;22;20026;-56
2023/06/17 02:37:26;;;;;;;3.33;3.13;;;;;;;;;;5227708;22;20057;-56
2023/06/17 02:39:47;;;;;;;3.85;3.75;;;;;;;;;;5227555;22;20337;-57
2023/06/17 02:42:11;;;;;;;3.88;3.63;;;;;;;;;;5227750;22;20060;-57
2023/06/17 02:44:31;;;;;;;3.78;3.63;;;;;;;;;;5227797;22;20111;-57
2023/06/17 02:46:52;;;;;;;3.47;3.38;;;;;;;;;;5227687;22;20057;-57
2023/06/17 02:49:13;;;;;;;2.78;2.45;;;;;;;;;;5227621;22;20254;-57
2023/06/17 02:51:34;;;;;;;3.25;3.05;;;;;;;;;;5226130;22;20061;-57
2023/06/17 02:53:54;;;;;;;3.30;3.20;;;;;;;;;;5227613;22;20570;-57
2023/06/17 02:56:15;;;;;;;4.35;4.03;;;;;;;;;;5202775;22;20230;-57
2023/06/17 02:58:36;;;;;;;3.67;3.22;;;;;;;;;;5227662;22;20057;-57
2023/06/17 03:00:57;;;;;;;3.53;3.42;;;;;;;;;;5227671;22;20026;-57
2023/06/17 03:03:18;;;;;;;3.50;3.25;;;;;;;;;;5227605;22;20041;-57
2023/06/17 03:05:39;;;;;;;3.00;2.75;;;;;;;;;;5227665;22;20026;-57
2023/06/17 03:07:59;;;;;;;4.53;4.28;;;;;;;;;;5227672;22;20060;-57
2023/06/17 03:10:20;;;;;;;3.13;3.03;;;;;;;;;;5227514;22;20120;-57
2023/06/17 03:12:40;;;;;;;3.53;3.33;;;;;;;;;;5227542;22;20065;-57
2023/06/17 03:15:01;;;;;;;2.90;2.80;;;;;;;;;;5236306;22;20025;-57
2023/06/17 03:17:21;;;;;;;3.15;2.95;;;;;;;;;;5227586;22;20061;-57
2023/06/17 03:19:43;;;;;;;3.45;3.25;;;;;;;;;;5227517;22;20075;-57
2023/06/17 03:22:03;;;;;;;4.63;3.40;;;;;;;;;;5227554;22;20026;-57
2023/06/17 03:24:24;;;;;;;3.30;3.22;;;;;;;;;;5227536;22;20022;-58
2023/06/17 03:26:45;;;;;;;4.15;3.92;;;;;;;;;;5227440;22;20063;-57
2023/06/17 03:29:05;;;;;;;2.85;2.65;;;;;;;;;;5227178;22;20022;-57
2023/06/17 03:31:26;;;;;;;3.33;3.22;;;;;;;;;;5227526;22;20379;-57
2023/06/17 03:33:55;;;;;;;2.75;2.65;;;;;;;;;;5227434;22;20118;-57
2023/06/17 03:36:28;;;;;;;2.42;2.42;;;;;;;;;;5227443;22;20371;-57
2023/06/17 03:38:51;;;;;;;2.80;2.70;;;;;;;;;;5227488;22;20363;-57
2023/06/17 03:41:12;;;;;;;3.08;3.00;;;;;;;;;;5227414;22;20341;-58
2023/06/17 03:43:32;;;;;;;3.03;2.83;;;;;;;;;;5227382;22;20332;-57
2023/06/17 03:45:54;;;;;;;4.20;2.53;;;;;;;;;;5227400;22;20034;-57
2023/06/17 03:48:15;;;;;;;2.70;2.60;;;;;;;;;;5227431;22;20241;-58
2023/06/17 03:50:35;;;;;;;6.00;3.20;;;;;;;;;;5227399;22;20210;-57
2023/06/17 03:52:55;;;;;;;2.72;2.63;;;;;;;;;;5227431;22;20023;-57
2023/06/17 03:55:16;;;;;;;2.72;2.63;;;;;;;;;;5227512;22;20022;-57
2023/06/17 03:57:37;;;;;;;2.83;2.63;;;;;;;;;;5236009;22;20226;-57
2023/06/17 03:59:57;;;;;;;3.08;2.88;;;;;;;;;;5227253;22;20026;-57
2023/06/17 04:02:18;;;;;;;3.03;3.03;;;;;;;;;;5227394;22;20349;-57
2023/06/17 04:04:39;;;;;;;2.38;2.38;;;;;;;;;;5227394;22;20025;-57
2023/06/17 04:07:00;;;;;;;2.80;2.70;;;;;;;;;;5227361;22;20121;-57
2023/06/17 04:09:20;;;;;;;3.28;3.08;;;;;;;;;;5227292;22;20337;-57
2023/06/17 04:11:41;;;;;;;3.45;2.65;;;;;;;;;;5227388;22;20061;-57
2023/06/17 04:14:01;;;;;;;2.50;2.30;;;;;;;;;;5227327;22;20022;-57
2023/06/17 04:16:23;;;;;;;2.53;2.53;;;;;;;;;;5227346;22;20026;-57
2023/06/17 04:18:43;;;;;;;2.40;2.30;;;;;;;;;;5227459;22;20023;-57
2023/06/17 04:21:05;;;;;;;2.53;2.33;;;;;;;;;;5227342;22;20026;-57
2023/06/17 04:23:25;;;;;;;2.55;2.47;;;;;;;;;;5227264;22;20069;-57
2023/06/17 04:25:45;;;;;;;2.25;2.25;;;;;;;;;;5227268;22;20061;-57
2023/06/17 04:28:07;;;;;;;2.83;2.67;;;;;;;;;;5227304;22;20025;-57
2023/06/17 04:30:27;;;;;;;2.63;2.42;;;;;;;;;;5227159;22;20064;-57
2023/06/17 04:32:50;;;;;;;2.58;2.47;;;;;;;;;;5227270;22;20341;-57
2023/06/17 04:35:10;;;;;;;2.40;2.40;;;;;;;;;;5227425;22;20046;-57
2023/06/17 04:37:36;;;;;;;2.65;2.65;;;;;;;;;;5227266;22;20245;-57
2023/06/17 04:39:58;;;;;;;2.45;2.45;;;;;;;;;;5227194;22;20029;-57
2023/06/17 04:42:19;;;;;;;2.50;2.50;;;;;;;;;;5227333;22;20337;-57
2023/06/17 04:44:40;;;;;;;3.35;2.55;;;;;;;;;;5227514;22;20022;-57
2023/06/17 04:47:00;;;;;;;3.28;3.08;;;;;;;;;;5227140;22;20245;-57
2023/06/17 04:49:22;;;;;;;2.53;2.53;;;;;;;;;;5227114;22;20345;-57
2023/06/17 04:51:42;;;;;;;2.83;2.72;;;;;;;;;;5235749;22;20088;-57
2023/06/17 04:54:05;;;;;;;4.72;3.22;;;;;;;;;;5227213;22;20084;-57
2023/06/17 04:56:26;;;;;;;;;;;;;;;;;;5227661;22;20026;-57
2023/06/17 04:58:47;;;;;;;3.33;3.10;;;;;;;;;;5227263;22;19918;-57
2023/06/17 05:01:10;;;;;;;7.38;3.28;;;;;;;;;;5227203;22;20034;-57
2023/06/17 05:03:31;;;;;;;3.00;2.95;;;;;;;;;;5204259;22;20030;-57
2023/06/17 05:05:52;;;;;;;3.28;3.17;;;;;;;;;;5227232;22;20034;-57
2023/06/17 05:08:12;;;;;;;3.03;2.83;;;;;;;;;;5227227;22;20026;-57
2023/06/17 05:10:33;;;;;;;3.42;3.42;;;;;;;;;;5204054;22;20027;-57
2023/06/17 05:12:53;;;;;;;3.78;3.67;;;;;;;;;;5227099;22;20258;-57
2023/06/17 05:15:14;;;;;;;2.80;2.80;;;;;;;;;;5227143;22;20064;-57
2023/06/17 05:17:34;;;;;;;3.35;3.15;;;;;;;;;;5227089;22;20202;-57
2023/06/17 05:19:55;;;;;;;2.67;2.58;;;;;;;;;;5227076;22;20206;-57
2023/06/17 05:22:15;;;;;;;2.55;2.55;;;;;;;;;;5227164;22;20061;-56
2023/06/17 05:24:35;;;;;;;3.50;3.30;;;;;;;;;;5227103;22;20022;-57
2023/06/17 05:26:55;;;;;;;2.83;2.83;;;;;;;;;;5235727;22;20026;-57
2023/06/17 05:29:16;;;;;;;2.85;2.65;;;;;;;;;;5227041;22;20113;-57
2023/06/17 05:31:36;;;;;;;2.63;2.53;;;;;;;;;;5226998;22;20159;-57
2023/06/17 05:33:57;;;;;;;3.42;3.30;;;;;;;;;;5226985;22;20118;-57
2023/06/17 05:36:17;;;;;;;3.10;3.00;;;;;;;;;;5226930;22;20026;-57
2023/06/17 05:38:37;;;;;;;3.17;3.08;;;;;;;;;;5226937;22;20034;-57
2023/06/17 05:40:57;;;;;;;2.72;2.70;;;;;;;;;;5226713;22;20038;-57
2023/06/17 05:43:18;;;;;;;2.25;2.15;;;;;;;;;;5226877;22;20026;-57
2023/06/17 05:45:38;;;;;;;2.75;2.72;;;;;;;;;;5226852;22;20065;-56
2023/06/17 05:47:58;;;;;;;91.05;12.43;;;;;;;;;;5226755;22;20092;-57
2023/06/17 05:50:18;;;;;;;3.97;2.63;;;;;;;;;;5226849;22;20026;-56
2023/06/17 05:52:40;;;;;;;2.08;1.98;;;;;;;;;;5229708;22;20038;-56
2023/06/17 05:55:00;;;;;;;1.95;1.95;;;;;;;;;;5229665;22;20061;-56
2023/06/17 05:57:21;;;;;;;2.17;2.05;;;;;;;;;;5229669;22;20022;-56
2023/06/17 05:59:41;;;;;;;2.00;2.00;;;;;;;;;;5229689;22;20056;-56
2023/06/17 06:02:01;;;;;;;1.85;1.85;;;;;;;;;;5229643;22;20034;-57
2023/06/17 06:04:22;;;;;;;1.70;1.70;;;;;;;;;;5229655;22;20021;-56
2023/06/17 06:06:43;;;;;;;2.30;2.03;;;;;;;;;;5229543;22;20081;-56
2023/06/17 06:09:05;;;;;;;1.60;1.50;;;;;;;;;;5229494;22;20329;-56
2023/06/17 06:11:26;;;;;;;1.55;1.55;;;;;;;;;;5229474;22;20065;-56
2023/06/17 06:13:47;;;;;;;2.80;1.70;;;;;;;;;;5229523;22;20050;-56
2023/06/17 06:16:07;;;;;;;2.00;1.80;;;;;;;;;;5206641;22;20373;-56
2023/06/17 06:18:28;;;;;;;3.78;1.60;;;;;;;;;;5229489;22;20038;-57
2023/06/17 06:20:48;;;;;;;1.58;1.58;;;;;;;;;;5206518;22;20022;-56
2023/06/17 06:23:09;;;;;;;1.90;1.90;;;;;;;;;;5228276;22;20329;-56
2023/06/17 06:25:29;;;;;;;2.00;1.90;;;;;;;;;;5229480;22;20022;-57
2023/06/17 06:27:52;;;;;;;1.58;1.58;;;;;;;;;;5229384;22;20053;-57
2023/06/17 06:30:13;;;;;;;1.95;1.92;;;;;;;;;;5229313;22;20069;-57
2023/06/17 06:32:34;;;;;;;1.85;1.80;;;;;;;;;;5229467;22;20060;-56
2023/06/17 06:34:54;;;;;;;1.40;1.40;;;;;;;;;;5229307;22;20022;-56
2023/06/17 06:37:14;;;;;;;1.85;1.30;;;;;;;;;;5229331;22;20038;-57
2023/06/17 06:39:35;;;;;;;1.30;1.30;;;;;;;;;;5229194;22;20213;-57
2023/06/17 06:41:56;;;;;;;1.55;1.55;;;;;;;;;;5229244;22;20084;-57
2023/06/17 06:44:16;;;;;;;1.70;1.70;;;;;;;;;;5206319;22;20023;-57
2023/06/17 06:46:36;;;;;;;1.30;1.30;;;;;;;;;;5229375;22;20163;-57
2023/06/17 06:48:57;;;;;;;2.60;1.90;;;;;;;;;;5229159;22;20023;-57
2023/06/17 06:51:17;;;;;;;1.65;1.65;;;;;;;;;;5229292;22;20072;-57
2023/06/17 06:53:37;;;;;;;1.40;1.40;;;;;;;;;;5229383;22;20030;-57
2023/06/17 06:55:58;;;;;;;1.40;1.30;;;;;;;;;;5229260;22;20054;-57
2023/06/17 06:58:19;;;;;;;1.30;1.30;;;;;;;;;;5229157;22;20022;-57
2023/06/17 07:00:39;;;;;;;4.45;1.83;;;;;;;;;;5229154;22;20050;-57
2023/06/17 07:03:01;;;;;;;1.50;1.50;;;;;;;;;;5227432;22;20061;-58
2023/06/17 07:05:22;;;;;;;1.30;1.30;;;;;;;;;;5227470;22;20023;-57
2023/06/17 07:07:44;;;;;;;1.30;1.30;;;;;;;;;;5227524;22;20026;-57
2023/06/17 07:10:04;;;;;;;1.30;1.30;;;;;;;;;;5227498;22;20038;-57
2023/06/17 07:12:25;;;;;;;2.97;1.48;;;;;;;;;;5227499;22;20364;-57
2023/06/17 07:14:46;;;;;;;1.60;1.60;;;;;;;;;;5227610;22;20060;-57
2023/06/17 07:17:06;;;;;;;1.70;1.63;;;;;;;;;;5204705;22;20026;-57
2023/06/17 07:19:30;;;;;;;12.45;3.42;;;;;;;;;;5226803;22;20042;-57
2023/06/17 07:21:50;;;;;;;16.58;4.57;;;;;;;;;;5227589;22;20341;-58
2023/06/17 07:24:10;;;;;;;1.55;1.55;;;;;;;;;;5227572;22;20084;-57
2023/06/17 07:26:31;;;;;;;15.15;5.28;;;;;;;;;;5227420;22;20378;-57
2023/06/17 07:28:52;;;;;;;2.45;1.77;;;;;;;;;;5227294;22;20022;-58
2023/06/17 07:31:15;;;;;;;1.13;1.13;;;;;;;;;;5227440;22;20360;-57
2023/06/17 07:33:36;;;;;;;1.77;1.20;;;;;;;;;;5227540;22;20052;-57
2023/06/17 07:35:56;;;;;;;1.40;1.40;;;;;;;;;;5227454;22;20053;-57
2023/06/17 07:38:17;;;;;;;1.20;1.15;;;;;;;;;;5227533;22;20030;-57
2023/06/17 07:40:37;;;;;;;3.20;1.73;;;;;;;;;;5227478;22;20061;-58
2023/06/17 07:42:58;;;;;;;1.20;1.20;;;;;;;;;;5227430;22;20368;-58
2023/06/17 07:45:18;;;;;;;1.15;1.15;;;;;;;;;;5227437;22;20121;-58
2023/06/17 07:47:39;;;;;;;1.23;1.13;;;;;;;;;;5227470;22;20401;-58
2023/06/17 07:49:59;;;;;;;1.10;1.10;;;;;;;;;;5227354;22;20026;-57
2023/06/17 07:52:19;;;;;;;2.05;1.00;;;;;;;;;;5227453;22;20022;-58
2023/06/17 07:54:41;;;;;;;1.20;1.20;;;;;;;;;;5227447;22;20026;-57
2023/06/17 07:57:01;;;;;;;2.22;2.05;;;;;;;;;;5227404;22;20075;-58
2023/06/17 07:59:21;;;;;;;1.20;1.10;;;;;;;;;;5227339;22;20050;-57
2023/06/17 08:01:43;;;;;;;1.10;1.10;;;;;;;;;;5227361;22;20257;-57
2023/06/17 08:04:03;;;;;;;1.85;1.20;;;;;;;;;;5227442;22;20205;-58
2023/06/17 08:06:24;;;;;;;1.20;1.10;;;;;;;;;;5227359;22;20054;-58
2023/06/17 08:08:45;;;;;;;0.90;0.90;;;;;;;;;;5227311;22;20022;-58
2023/06/17 08:11:06;;;;;;;1.08;1.08;;;;;;;;;;5227453;22;20031;-57
2023/06/17 08:13:26;;;;;;;17.00;4.38;;;;;;;;;;5227040;22;20049;-58
2023/06/17 08:15:49;;;;;;;4.55;2.22;;;;;;;;;;5227350;22;20405;-57
2023/06/17 08:18:10;;;;;;;1.38;1.10;;;;;;;;;;5227270;22;20344;-58
2023/06/17 08:20:30;;;;;;;1.20;1.20;;;;;;;;;;5227303;22;20064;-57
2023/06/17 08:22:50;;;;;;;1.30;0.90;;;;;;;;;;5227190;22;20022;-58
2023/06/17 08:25:10;;;;;;;1.67;0.90;;;;;;;;;;5227262;22;20079;-57
2023/06/17 08:27:31;;;;;;;0.90;0.90;;;;;;;;;;5227277;22;20029;-57
2023/06/17 08:29:52;;;;;;;2.05;0.98;;;;;;;;;;5227206;22;20042;-58
2023/06/17 08:32:12;;;;;;;0.93;0.93;;;;;;;;;;5227206;22;20026;-57
2023/06/17 08:34:35;;;;;;;2.15;0.93;;;;;;;;;;5227364;22;20027;-58
2023/06/17 08:36:55;;;;;;;1.77;0.90;;;;;;;;;;5227232;22;20072;-57
2023/06/17 08:39:15;;;;;;;0.90;0.90;;;;;;;;;;5227278;22;20030;-57
2023/06/17 08:41:39;;;;;;;0.80;0.80;;;;;;;;;;5227351;22;20022;-57
2023/06/17 08:44:01;;;;;;;0.90;0.90;;;;;;;;;;5227269;22;20034;-57
2023/06/17 08:46:24;;;;;;;3.47;0.90;;;;;;;;;;5227134;22;20367;-58
2023/06/17 08:48:46;;;;;;;0.80;0.80;;;;;;;;;;5227210;22;20053;-58
2023/06/17 08:51:07;;;;;;;11.48;1.95;;;;;;;;;;5227332;22;20105;-58
2023/06/17 08:53:27;;;;;;;10.55;1.20;;;;;;;;;;5227212;22;20022;-58
2023/06/17 08:55:47;;;;;;;8.15;1.60;;;;;;;;;;5227223;22;20033;-59
2023/06/17 08:58:09;;;;;;;1.55;0.90;;;;;;;;;;5227259;22;20065;-59
2023/06/17 09:00:29;;;;;;;1.92;0.80;;;;;;;;;;5227204;22;20115;-58
2023/06/17 09:02:50;;;;;;;0.80;0.80;;;;;;;;;;5224486;22;20061;-58
2023/06/17 09:05:10;;;;;;;0.90;0.90;;;;;;;;;;5204232;22;20058;-58
2023/06/17 09:07:31;;;;;;;0.90;0.90;;;;;;;;;;5226802;22;20213;-58
2023/06/17 09:09:54;;;;;;;1.63;0.75;;;;;;;;;;5202141;22;20023;-58
2023/06/17 09:12:15;;;;;;;0.85;0.85;;;;;;;;;;5202973;22;20026;-58
2023/06/17 09:14:35;;;;;;;0.82;0.70;;;;;;;;;;5227137;22;20368;-58
2023/06/17 09:16:55;;;;;;;1.08;1.08;;;;;;;;;;5227045;22;20049;-58
2023/06/17 09:19:16;;;;;;;0.70;0.70;;;;;;;;;;5227118;22;20367;-58
2023/06/17 09:21:37;;;;;;;0.80;0.80;;;;;;;;;;5227172;22;20025;-58
2023/06/17 09:23:58;;;;;;;0.70;0.70;;;;;;;;;;5227149;22;20040;-58
2023/06/17 09:26:18;;;;;;;1.98;0.80;;;;;;;;;;5226356;22;20057;-58
2023/06/17 09:28:38;;;;;;;0.90;0.77;;;;;;;;;;5227084;22;20021;-59
2023/06/17 09:30:59;;;;;;;1.13;0.77;;;;;;;;;;5227056;22;20218;-58
2023/06/17 09:33:20;;;;;;;0.60;0.60;;;;;;;;;;5226998;22;20050;-59
2023/06/17 09:35:40;;;;;;;0.75;0.60;;;;;;;;;;5226908;22;20025;-59
2023/06/17 09:38:04;;;;;;;0.60;0.60;;;;;;;;;;5226937;22;20030;-59
2023/06/17 09:40:33;;;;;;;0.60;0.60;;;;;;;;;;5226877;22;20030;-58
2023/06/17 09:42:54;;;;;;;0.70;0.60;;;;;;;;;;5226832;22;20026;-59
2023/06/17 09:45:25;;;;;;;1.52;0.75;;;;;;;;;;5227026;22;20334;-59
2023/06/17 09:47:53;;;;;;;0.60;0.60;;;;;;;;;;5226906;22;20249;-58
2023/06/17 09:50:14;;;;;;;0.60;0.60;;;;;;;;;;5226823;22;20068;-59
2023/06/17 09:52:35;;;;;;;1.08;0.75;;;;;;;;;;5226827;22;20025;-58
2023/06/17 09:54:56;;;;;;;1.05;0.60;;;;;;;;;;5227319;22;20075;-58
2023/06/17 09:57:17;;;;;;;0.70;0.70;;;;;;;;;;5226831;22;20042;-58
2023/06/17 09:59:37;;;;;;;0.60;0.60;;;;;;;;;;5226731;22;20065;-58
2023/06/17 10:01:58;;;;;;;0.60;0.60;;;;;;;;;;5226772;22;20026;-59
2023/06/17 10:04:18;;;;;;;0.70;0.70;;;;;;;;;;5226776;22;20026;-58
2023/06/17 10:06:40;;;;;;;0.60;0.60;;;;;;;;;;5226647;22;20061;-58
2023/06/17 10:09:02;;;;;;;0.70;0.70;;;;;;;;;;5226571;22;20125;-58
2023/06/17 10:11:24;;;;;;;1.58;0.65;;;;;;;;;;5226733;22;20068;-58
2023/06/17 10:13:45;;;;;;;0.60;0.60;;;;;;;;;;5226585;22;20333;-58
2023/06/17 10:16:06;;;;;;;;;;;;;;;;;;5227095;22;20026;-58
2023/06/17 10:18:27;;;;;;;0.70;0.70;;;;;;;;;;5226768;22;19960;-58
2023/06/17 10:20:49;;;;;;;0.70;0.70;;;;;;;;;;5226680;22;20023;-58
2023/06/17 10:23:10;;;;;;;0.65;0.65;;;;;;;;;;5226512;22;20639;-58
2023/06/17 10:25:30;;;;;;;0.70;0.70;;;;;;;;;;5226578;22;20021;-58
2023/06/17 10:27:50;;;;;;;0.60;0.60;;;;;;;;;;5226538;22;20210;-58
2023/06/17 10:30:23;;;;;;;0.60;0.60;;;;;;;;;;5226320;22;20021;-58
2023/06/17 10:32:51;;;;;;;0.60;0.60;;;;;;;;;;5226525;22;20026;-58
2023/06/17 10:35:15;;;;;;;0.77;0.70;;;;;;;;;;5225124;22;20112;-58
2023/06/17 10:37:44;;;;;;;0.60;0.60;;;;;;;;;;5227217;22;20026;-58
2023/06/17 10:40:36;;;;;;;0.60;0.60;;;;;;;;;;5227646;22;20060;-59
2023/06/17 10:43:02;;;;;;;0.70;0.70;;;;;;;;;;5204743;22;20054;-58
2023/06/17 10:45:23;;;;;;;1.65;0.70;;;;;;;;;;5227542;22;20022;-57
2023/06/17 10:47:43;;;;;;;0.65;0.65;;;;;;;;;;5227632;22;20065;-58
2023/06/17 10:50:05;;;;;;;1.40;0.63;;;;;;;;;;5227582;22;20274;-58
2023/06/17 10:52:30;;;;;;;0.60;0.60;;;;;;;;;;5227676;22;20038;-58
2023/06/17 10:54:55;;;;;;;0.60;0.60;;;;;;;;;;5204735;22;20059;-57
2023/06/17 10:57:15;;;;;;;0.70;0.70;;;;;;;;;;5227586;22;20337;-58
2023/06/17 10:59:35;;;;;;;0.60;0.60;;;;;;;;;;5227669;22;20023;-58
2023/06/17 11:02:03;;;;;;;0.70;0.70;;;;;;;;;;5227540;22;20257;-57
2023/06/17 11:04:23;;;;;;;0.70;0.70;;;;;;;;;;5227628;22;20058;-58
2023/06/17 11:06:47;;;;;;;0.70;0.70;;;;;;;;;;5227713;22;20070;-58
2023/06/17 11:09:08;;;;;;;0.70;0.70;;;;;;;;;;5227501;22;20364;-58
2023/06/17 11:11:30;;;;;;;0.70;0.70;;;;;;;;;;5227590;22;20329;-58
2023/06/17 11:13:51;;;;;;;1.00;0.70;;;;;;;;;;5227563;22;20243;-58
2023/06/17 11:16:12;;;;;;;0.70;0.70;;;;;;;;;;5227583;22;20022;-58
2023/06/17 11:18:34;;;;;;;0.60;0.60;;;;;;;;;;5227434;22;20026;-58
2023/06/17 11:20:54;;;;;;;0.60;0.60;;;;;;;;;;5227567;22;20065;-58
2023/06/17 11:23:15;;;;;;;1.15;0.60;;;;;;;;;;5227540;22;20056;-58
2023/06/17 11:25:37;;;;;;;3.03;0.70;;;;;;;;;;5227519;22;20026;-58
2023/06/17 11:28:05;;;;;;;0.68;0.68;;;;;;;;;;5227539;22;20226;-58
2023/06/17 11:30:26;;;;;;;0.70;0.70;;;;;;;;;;5227542;22;20065;-58
2023/06/17 11:32:48;;;;;;;0.70;0.70;;;;;;;;;;5227537;22;20037;-58
2023/06/17 11:35:09;;;;;;;0.68;0.68;;;;;;;;;;5227501;22;20071;-58
2023/06/17 11:37:30;;;;;;;0.70;0.70;;;;;;;;;;5227434;22;20068;-58
2023/06/17 11:39:56;;;;;;;0.70;0.70;;;;;;;;;;5227552;22;20067;-59
2023/06/17 11:42:16;;;;;;;0.70;0.70;;;;;;;;;;5227435;22;20218;-58
2023/06/17 11:44:37;;;;;;;0.60;0.60;;;;;;;;;;5227449;22;20022;-58
2023/06/17 11:47:02;;;;;;;0.68;0.68;;;;;;;;;;5204544;22;20027;-58
2023/06/17 11:49:27;;;;;;;2.25;0.63;;;;;;;;;;5227050;22;20065;-58
2023/06/17 11:51:51;;;;;;;1.35;0.65;;;;;;;;;;5227427;22;20286;-58
2023/06/17 11:54:11;;;;;;;0.60;0.60;;;;;;;;;;5227532;22;20073;-58
2023/06/17 11:56:32;;;;;;;0.52;0.52;;;;;;;;;;5227520;22;20336;-57
2023/06/17 11:58:52;;;;;;;0.77;0.70;;;;;;;;;;5227392;22;20022;-58
2023/06/17 12:01:14;;;;;;;0.80;0.60;;;;;;;;;;5227425;22;20076;-58
2023/06/17 12:03:34;;;;;;;0.95;0.85;;;;;;;;;;5227535;22;20027;-58
2023/06/17 12:05:57;;;;;;;0.70;0.70;;;;;;;;;;5227465;22;20375;-58
2023/06/17 12:08:17;;;;;;;0.70;0.70;;;;;;;;;;5227337;22;20023;-58
2023/06/17 12:10:38;;;;;;;1.10;0.70;;;;;;;;;;5227245;22;20075;-58
2023/06/17 12:12:58;;;;;;;0.70;0.70;;;;;;;;;;5227383;22;20022;-58
2023/06/17 12:15:26;;;;;;;1.42;0.60;;;;;;;;;;5227284;22;20025;-58
2023/06/17 12:17:52;;;;;;;0.60;0.60;;;;;;;;;;5227325;22;20023;-58
2023/06/17 12:20:14;;;;;;;0.98;0.70;;;;;;;;;;5227435;22;20061;-58
2023/06/17 12:22:35;;;;;;;1.15;0.70;;;;;;;;;;5227397;22;20025;-58
2023/06/17 12:24:55;;;;;;;0.70;0.70;;;;;;;;;;5204339;22;20030;-58
2023/06/17 12:27:15;;;;;;;1.60;0.65;;;;;;;;;;5227296;22;20026;-58
2023/06/17 12:29:36;;;;;;;1.63;0.70;;;;;;;;;;5227270;22;20023;-58
2023/06/17 12:31:56;;;;;;;0.70;0.70;;;;;;;;;;5227306;22;20363;-58
2023/06/17 12:34:17;;;;;;;0.60;0.60;;;;;;;;;;5227390;22;20029;-59
2023/06/17 12:36:38;;;;;;;0.70;0.70;;;;;;;;;;5227370;22;20258;-59
2023/06/17 12:39:00;;;;;;;1.52;0.63;;;;;;;;;;5227318;22;20079;-59
2023/06/17 12:41:21;;;;;;;0.60;0.60;;;;;;;;;;5227277;22;20068;-58
2023/06/17 12:43:41;;;;;;;0.60;0.60;;;;;;;;;;5227392;22;20064;-59
2023/06/17 12:46:02;;;;;;;0.60;0.60;;;;;;;;;;5227325;22;20037;-58
2023/06/17 12:48:22;;;;;;;1.40;0.60;;;;;;;;;;5227232;22;20345;-59
2023/06/17 12:50:44;;;;;;;0.60;0.60;;;;;;;;;;5227171;22;20248;-58
2023/06/17 12:53:04;;;;;;;0.65;0.65;;;;;;;;;;5227258;22;20072;-58
2023/06/17 12:55:24;;;;;;;0.63;0.63;;;;;;;;;;5227132;22;20022;-59
2023/06/17 12:57:45;;;;;;;0.63;0.60;;;;;;;;;;5227175;22;20026;-58
2023/06/17 13:00:06;;;;;;;0.65;0.65;;;;;;;;;;5226696;22;20025;-58
2023/06/17 13:02:26;;;;;;;0.63;0.63;;;;;;;;;;5227180;22;20038;-59
2023/06/17 13:04:47;;;;;;;0.65;0.65;;;;;;;;;;5227192;22;20030;-58
2023/06/17 13:07:07;;;;;;;0.60;0.60;;;;;;;;;;5235869;22;20026;-59
2023/06/17 13:09:27;;;;;;;0.60;0.60;;;;;;;;;;5227036;22;20021;-59
2023/06/17 13:11:48;;;;;;;2.42;0.60;;;;;;;;;;5227106;22;20333;-56
2023/06/17 13:14:09;;;;;;;0.70;0.70;;;;;;;;;;5227198;22;20262;-56
2023/06/17 13:16:29;;;;;;;0.65;0.65;;;;;;;;;;5227090;22;20025;-56
2023/06/17 13:18:49;;;;;;;0.70;0.70;;;;;;;;;;5227104;22;20053;-56
2023/06/17 13:21:10;;;;;;;0.70;0.70;;;;;;;;;;5227047;22;20022;-56
2023/06/17 13:23:30;;;;;;;1.60;0.70;;;;;;;;;;5227122;22;20060;-56
2023/06/17 13:25:50;;;;;;;0.93;0.80;;;;;;;;;;5226971;22;20022;-56
2023/06/17 13:28:11;;;;;;;1.38;1.13;;;;;;;;;;5227034;22;20344;-56
2023/06/17 13:30:33;;;;;;;0.60;0.60;;;;;;;;;;5226987;22;20023;-56
2023/06/17 13:32:53;;;;;;;0.68;0.68;;;;;;;;;;5223962;22;20027;-56
2023/06/17 13:35:14;;;;;;;0.73;0.60;;;;;;;;;;5227039;22;20021;-56
2023/06/17 13:37:35;;;;;;;0.95;0.60;;;;;;;;;;5227173;22;20027;-57
2023/06/17 13:39:56;;;;;;;0.70;0.70;;;;;;;;;;5226953;22;20213;-56
2023/06/17 13:42:17;;;;;;;0.70;0.70;;;;;;;;;;5227043;22;20105;-56
2023/06/17 13:44:37;;;;;;;0.65;0.65;;;;;;;;;;5227018;22;20088;-56
2023/06/17 13:46:58;;;;;;;0.70;0.70;;;;;;;;;;5204019;22;20086;-56
2023/06/17 13:49:18;;;;;;;1.58;0.85;;;;;;;;;;5226695;22;20026;-57
2023/06/17 13:51:39;;;;;;;1.25;0.63;;;;;;;;;;5226860;22;20086;-57
2023/06/17 13:54:00;;;;;;;0.73;0.73;;;;;;;;;;5226900;22;20026;-56
2023/06/17 13:56:20;;;;;;;0.65;0.65;;;;;;;;;;5226862;22;20045;-56
2023/06/17 13:58:42;;;;;;;0.70;0.70;;;;;;;;;;5226789;22;20026;-56
2023/06/17 14:01:03;;;;;;;0.70;0.70;;;;;;;;;;5226926;22;20065;-56
2023/06/17 14:03:23;;;;;;;0.85;0.60;;;;;;;;;;5226768;22;20061;-56
2023/06/17 14:05:44;;;;;;;0.60;0.60;;;;;;;;;;5226782;22;20026;-57
2023/06/17 14:08:04;;;;;;;0.63;0.63;;;;;;;;;;5226919;22;20022;-56